Time;durP1;ratioP1;P1;durP2;ratioP2;P2;SDS_P1;SDS_P2;PMS_P1;PMS_P2;Temp;Humidity;BMP_temperature;BMP_pressure;BME280_temperature;BME280_humidity;BME280_pressure;Samples;Min_cycle;Max_cycle;Signal;HPM_P1;HPM_P2
2021/03/23 00:00:46;;;;;;;37.00;29.40;;;;;;;21.00;41.62;100230.53;2053365;28;20026;-68
2021/03/23 00:01:46;;;;;;;37.88;29.70;;;;;;;20.99;41.40;100232.38;2050166;28;20053;-68
2021/03/23 00:03:03;;;;;;;35.87;28.77;;;;;;;20.98;41.38;100234.25;2052945;28;20102;-67
2021/03/23 00:04:04;;;;;;;36.15;27.30;;;;;;;20.98;41.39;100222.44;2053835;28;20555;-67
2021/03/23 00:05:08;;;;;;;36.88;28.98;;;;;;;20.97;41.63;100227.06;2054214;28;20023;-68
2021/03/23 00:06:15;;;;;;;36.03;29.10;;;;;;;20.96;41.43;100225.34;2054636;28;20053;-68
2021/03/23 00:07:16;;;;;;;37.75;28.55;;;;;;;20.97;41.42;100226.22;2051223;28;20023;-67
2021/03/23 00:08:32;;;;;;;37.47;27.93;;;;;;;20.95;41.49;100234.59;2054819;28;20019;-67
2021/03/23 00:09:33;;;;;;;38.95;29.48;;;;;;;20.94;41.54;100232.84;2053415;28;20854;-68
2021/03/23 00:10:34;;;;;;;34.50;28.27;;;;;;;20.94;41.70;100232.84;2054087;28;20430;-68
2021/03/23 00:11:37;;;;;;;38.17;28.48;;;;;;;20.94;41.72;100243.81;2054018;28;20015;-67
2021/03/23 00:12:38;;;;;;;36.95;28.70;;;;;;;20.94;41.59;100245.69;2051290;28;20045;-68
2021/03/23 00:13:41;;;;;;;35.23;29.03;;;;;;;20.94;41.55;100232.84;2055567;28;20793;-69
2021/03/23 00:14:41;;;;;;;37.97;29.40;;;;;;;20.94;41.51;100235.59;2053144;28;20170;-68
2021/03/23 00:15:43;;;;;;;36.77;29.67;;;;;;;20.93;41.58;100236.63;2045308;28;20039;-68
2021/03/23 00:16:45;;;;;;;34.92;28.80;;;;;;;20.91;41.71;100235.91;2055232;28;20026;-67
2021/03/23 00:17:45;;;;;;;35.45;29.05;;;;;;;20.93;41.70;100244.84;2054425;28;20035;-68
2021/03/23 00:18:46;;;;;;;34.57;28.80;;;;;;;20.91;41.59;100235.91;2053300;28;20910;-68
2021/03/23 00:19:47;;;;;;;35.37;28.70;;;;;;;20.91;41.70;100227.69;2057498;28;20109;-69
2021/03/23 00:20:47;;;;;;;36.57;29.63;;;;;;;20.89;41.83;100232.47;2052879;28;20035;-68
2021/03/23 00:21:48;;;;;;;33.40;27.77;;;;;;;20.90;41.57;100225.97;2056128;28;20093;-67
2021/03/23 00:22:48;;;;;;;36.30;29.27;;;;;;;20.89;41.79;100224.25;2056391;28;20108;-68
2021/03/23 00:23:49;;;;;;;37.47;29.13;;;;;;;20.88;41.70;100230.75;2054376;28;20101;-68
2021/03/23 00:24:50;;;;;;;35.73;28.53;;;;;;;20.88;41.71;100228.00;2055763;28;20023;-68
2021/03/23 00:25:50;;;;;;;35.97;28.90;;;;;;;20.87;41.57;100229.06;2054376;28;20180;-68
2021/03/23 00:26:51;;;;;;;35.87;29.00;;;;;;;20.87;41.69;100226.31;2053236;28;20022;-68
2021/03/23 00:27:51;;;;;;;34.10;27.93;;;;;;;20.87;41.73;100231.78;2051702;28;20490;-68
2021/03/23 00:28:55;;;;;;;40.80;30.70;;;;;;;20.86;41.77;100235.53;2054509;28;20031;-68
2021/03/23 00:30:10;;;;;;;36.63;29.25;;;;;;;20.86;41.67;100241.00;2055769;28;20102;-67
2021/03/23 00:31:11;;;;;;;36.55;28.17;;;;;;;20.86;41.86;100241.00;2054373;28;20019;-68
2021/03/23 00:32:11;;;;;;;34.67;29.00;;;;;;;20.85;41.83;100242.03;2054787;28;20022;-66
2021/03/23 00:33:12;;;;;;;36.60;28.80;;;;;;;20.87;41.69;100242.75;2054928;28;20096;-68
2021/03/23 00:34:12;;;;;;;35.97;29.27;;;;;;;20.82;41.73;100245.06;2055009;28;20101;-68
2021/03/23 00:35:13;;;;;;;36.07;29.33;;;;;;;20.81;41.87;100242.50;2057700;28;20062;-68
2021/03/23 00:36:21;;;;;;;36.70;29.17;;;;;;;20.77;42.00;100245.56;2061255;28;20085;-69
2021/03/23 00:37:22;;;;;;;39.88;28.95;;;;;;;20.76;41.97;100240.25;2054539;28;20026;-69
2021/03/23 00:38:23;;;;;;;39.70;30.47;;;;;;;20.74;42.00;100242.28;2054326;28;20075;-69
2021/03/23 00:39:23;;;;;;;34.95;27.80;;;;;;;20.70;41.99;100243.59;2055169;28;20061;-69
2021/03/23 00:40:28;;;;;;;33.33;27.87;;;;;;;20.70;42.04;100254.53;2051236;28;20404;-69
2021/03/23 00:41:33;;;;;;;34.38;27.45;;;;;;;20.67;42.15;100247.50;2057193;28;20390;-68
2021/03/23 00:42:34;;;;;;;37.50;29.05;;;;;;;20.66;42.23;100255.91;2062212;28;20540;-69
2021/03/23 00:43:39;;;;;;;38.38;29.85;;;;;;;20.66;42.25;100256.75;2056393;28;20099;-68
2021/03/23 00:44:40;;;;;;;39.55;29.00;;;;;;;20.64;42.12;100250.56;2056585;28;20162;-68
2021/03/23 00:45:43;;;;;;;35.10;29.07;;;;;;;20.61;42.23;100261.84;2056235;28;20027;-69
2021/03/23 00:46:43;;;;;;;41.08;29.38;;;;;;;20.62;42.42;100265.44;2059030;28;20026;-68
2021/03/23 00:47:44;;;;;;;34.90;28.70;;;;;;;20.61;42.45;100258.25;2057035;28;20481;-68
2021/03/23 00:48:44;;;;;;;34.50;28.13;;;;;;;20.61;42.40;100263.72;2054635;28;20023;-69
2021/03/23 00:49:45;;;;;;;38.60;30.40;;;;;;;20.58;42.45;100256.69;2049019;28;20070;-68
2021/03/23 00:50:45;;;;;;;38.97;29.20;;;;;;;20.57;42.45;100262.31;2051712;28;20726;-69
2021/03/23 00:51:46;;;;;;;38.30;29.17;;;;;;;20.55;42.43;100263.34;2051522;28;20064;-69
2021/03/23 00:52:46;;;;;;;41.53;28.90;;;;;;;20.53;42.43;100254.38;2056953;28;20082;-69
2021/03/23 00:53:47;;;;;;;38.60;29.03;;;;;;;20.53;42.57;100262.59;2056588;28;20031;-69
2021/03/23 00:54:50;;;;;;;37.37;29.70;;;;;;;20.53;42.56;100253.53;2055572;28;20732;-69
2021/03/23 00:56:02;;;;;;;35.97;29.55;;;;;;;20.53;42.54;100262.59;2056725;28;20019;-69
2021/03/23 00:57:02;;;;;;;33.75;27.90;;;;;;;20.51;42.67;100252.81;2056255;28;20355;-69
2021/03/23 00:58:03;;;;;;;37.33;28.87;;;;;;;20.49;42.74;100258.44;2055041;28;20206;-68
2021/03/23 00:59:03;;;;;;;41.23;29.73;;;;;;;20.50;42.67;100251.91;2056626;28;20114;-68
2021/03/23 01:00:06;;;;;;;36.80;28.97;;;;;;;20.49;42.81;100255.69;2056357;28;20035;-69
2021/03/23 01:01:07;;;;;;;35.88;28.42;;;;;;;20.48;42.76;100253.97;2050941;28;20089;-69
2021/03/23 01:02:07;;;;;;;37.37;28.60;;;;;;;20.48;42.81;100256.72;2054813;28;20101;-68
2021/03/23 01:03:08;;;;;;;36.60;29.03;;;;;;;20.47;42.70;100254.97;2056539;28;20057;-68
2021/03/23 01:04:08;;;;;;;35.77;29.33;;;;;;;20.46;42.77;100256.00;2059477;28;20117;-69
2021/03/23 01:05:10;;;;;;;34.23;28.83;;;;;;;20.47;42.85;100251.38;2061390;28;20031;-69
2021/03/23 01:06:10;;;;;;;39.58;30.38;;;;;;;20.46;42.78;100249.69;2054871;28;20034;-68
2021/03/23 01:07:11;;;;;;;36.23;28.23;;;;;;;20.45;42.64;100243.31;2055384;28;20034;-68
2021/03/23 01:08:12;;;;;;;35.53;30.33;;;;;;;20.44;42.69;100246.22;2056358;28;20034;-68
2021/03/23 01:09:12;;;;;;;36.53;30.00;;;;;;;20.43;42.83;100244.50;2054384;28;20054;-69
2021/03/23 01:10:15;;;;;;;34.77;28.80;;;;;;;20.43;42.82;100250.84;2052710;28;20403;-69
2021/03/23 01:11:16;;;;;;;34.55;27.88;;;;;;;20.43;42.79;100253.59;2056718;28;20117;-68
2021/03/23 01:12:17;;;;;;;37.67;28.37;;;;;;;20.42;42.82;100251.84;2050178;28;20035;-69
2021/03/23 01:13:17;;;;;;;35.00;28.33;;;;;;;20.40;42.74;100251.13;2050664;28;20811;-68
2021/03/23 01:14:18;;;;;;;36.40;29.67;;;;;;;20.41;42.87;100252.88;2056056;28;20105;-69
2021/03/23 01:15:22;;;;;;;34.40;27.67;;;;;;;20.39;42.84;100252.16;2047221;28;20134;-69
2021/03/23 01:16:22;;;;;;;39.33;29.45;;;;;;;20.39;42.82;100249.44;2055862;28;20396;-68
2021/03/23 01:17:23;;;;;;;38.30;29.57;;;;;;;20.40;42.92;100256.63;2056154;28;20114;-68
2021/03/23 01:18:23;;;;;;;38.83;31.10;;;;;;;20.40;42.88;100251.13;2055732;28;20071;-69
2021/03/23 01:19:24;;;;;;;37.07;29.20;;;;;;;20.41;42.95;100249.28;2057112;28;20405;-69
2021/03/23 01:20:27;;;;;;;35.10;28.57;;;;;;;20.42;42.95;100251.84;2053375;28;20031;-68
2021/03/23 01:21:27;;;;;;;36.80;30.15;;;;;;;20.42;42.70;100251.84;2064096;28;20038;-68
2021/03/23 01:22:28;;;;;;;38.30;28.77;;;;;;;20.43;42.89;100250.84;2063615;28;20086;-68
2021/03/23 01:23:28;;;;;;;38.90;29.47;;;;;;;20.45;42.80;100245.19;2055282;28;20022;-68
2021/03/23 01:24:29;;;;;;;36.33;30.13;;;;;;;20.45;42.67;100251.53;2056878;28;20046;-69
2021/03/23 01:25:30;;;;;;;37.50;29.27;;;;;;;20.45;42.91;100248.78;2053485;28;20459;-69
2021/03/23 01:26:30;;;;;;;35.88;28.80;;;;;;;20.47;42.67;100246.75;2050040;28;20398;-68
2021/03/23 01:27:31;;;;;;;35.80;30.13;;;;;;;20.47;42.72;100243.19;2053266;28;20074;-68
2021/03/23 01:28:31;;;;;;;36.40;28.70;;;;;;;20.50;42.62;100235.50;2056280;28;20593;-69
2021/03/23 01:29:32;;;;;;;34.93;28.67;;;;;;;20.51;42.57;100237.22;2055997;28;20066;-68
2021/03/23 01:30:32;;;;;;;35.30;28.00;;;;;;;20.54;42.51;100236.91;2056264;28;20023;-69
2021/03/23 01:31:32;;;;;;;34.20;28.07;;;;;;;20.58;42.44;100236.63;2056745;28;20053;-68
2021/03/23 01:32:33;;;;;;;34.50;28.27;;;;;;;20.61;42.54;100233.59;2055591;28;20076;-69
2021/03/23 01:33:33;;;;;;;36.60;28.00;;;;;;;20.64;42.28;100236.03;2057233;28;20066;-68
2021/03/23 01:34:34;;;;;;;36.77;29.37;;;;;;;20.66;42.34;100234.00;2056570;28;20105;-68
2021/03/23 01:35:34;;;;;;;34.93;28.90;;;;;;;20.70;42.17;100238.13;2055694;28;20026;-68
2021/03/23 01:36:35;;;;;;;33.70;26.87;;;;;;;20.74;42.15;100231.31;2056494;28;20027;-68
2021/03/23 01:37:36;;;;;;;35.13;28.73;;;;;;;20.76;42.15;100230.13;2055369;28;20020;-68
2021/03/23 01:38:36;;;;;;;35.70;29.83;;;;;;;20.81;42.06;100232.41;2055984;28;20097;-68
2021/03/23 01:39:37;;;;;;;36.70;28.80;;;;;;;20.82;41.90;100234.13;2061292;28;20038;-69
2021/03/23 01:40:39;;;;;;;35.23;28.10;;;;;;;20.85;42.00;100225.59;2058477;28;20021;-70
2021/03/23 01:41:39;;;;;;;33.97;28.48;;;;;;;20.86;41.83;100230.06;2048838;28;20035;-70
2021/03/23 01:42:48;;;;;;;37.13;29.53;;;;;;;20.88;41.87;100228.00;2056126;28;20088;-69
2021/03/23 01:43:50;;;;;;;34.22;27.52;;;;;;;20.90;41.97;100228.72;2055292;28;20026;-69
2021/03/23 01:45:16;;;;;;;36.60;29.60;;;;;;;20.88;41.95;100233.50;2048018;29;20034;-69
2021/03/23 01:46:48;;;;;;;32.65;27.48;;;;;;;20.89;41.75;100228.88;2056085;28;20014;-70
2021/03/23 01:47:48;;;;;;;34.17;27.45;;;;;;;20.89;41.81;100229.72;2057482;28;20506;-69
2021/03/23 01:48:49;;;;;;;38.30;29.50;;;;;;;20.88;41.95;100233.50;2055398;28;20418;-70
2021/03/23 01:49:49;;;;;;;34.07;28.07;;;;;;;20.89;41.88;100229.72;2056845;28;20425;-69
2021/03/23 01:50:57;;;;;;;37.63;28.90;;;;;;;20.88;41.89;100238.97;2056707;28;20018;-69
2021/03/23 01:52:01;;;;;;;35.05;27.25;;;;;;;20.88;41.87;100233.50;2059652;28;20030;-70
2021/03/23 01:53:08;;;;;;;33.53;28.27;;;;;;;20.87;41.83;100234.53;2055813;28;20065;-69
2021/03/23 01:54:35;;;;;;;34.55;28.42;;;;;;;20.86;41.81;100234.69;2052886;28;20132;-69
2021/03/23 01:55:37;;;;;;;35.33;29.15;;;;;;;20.87;41.89;100226.31;2056015;28;20046;-69
2021/03/23 01:56:38;;;;;;;35.47;28.60;;;;;;;20.85;41.76;100225.59;2055857;28;20030;-69
2021/03/23 01:57:40;;;;;;;34.15;27.75;;;;;;;20.85;41.92;100222.88;2052420;28;20035;-68
2021/03/23 01:58:44;;;;;;;34.55;27.35;;;;;;;20.84;41.87;100231.22;2052808;28;20053;-68
2021/03/23 01:59:51;;;;;;;33.70;28.48;;;;;;;20.84;41.76;100233.97;2061205;28;20033;-69
2021/03/23 02:00:53;;;;;;;35.33;28.30;;;;;;;20.83;41.98;100224.91;2056424;28;20034;-69
2021/03/23 02:01:57;;;;;;;32.58;27.42;;;;;;;20.83;41.81;100226.78;2053569;28;20031;-69
2021/03/23 02:02:59;;;;;;;32.83;28.90;;;;;;;20.81;41.96;100224.19;2056344;28;20035;-68
2021/03/23 02:04:00;;;;;;;30.45;26.05;;;;;;;20.82;41.88;100225.91;2056386;28;20560;-69
2021/03/23 02:05:01;;;;;;;34.88;27.95;;;;;;;20.83;41.88;100224.03;2055816;28;20108;-69
2021/03/23 02:06:02;;;;;;;34.40;27.87;;;;;;;20.80;42.02;100225.22;2055762;28;20057;-69
2021/03/23 02:07:03;;;;;;;33.20;25.60;;;;;;;20.81;42.06;100231.56;2056758;28;20039;-68
2021/03/23 02:08:04;;;;;;;34.93;27.53;;;;;;;20.82;42.05;100233.25;2054501;28;20063;-69
2021/03/23 02:09:12;;;;;;;34.30;28.02;;;;;;;20.82;42.09;100233.25;2053412;28;20035;-69
2021/03/23 02:10:14;;;;;;;32.47;26.30;;;;;;;20.80;42.07;100232.56;2055745;28;20039;-68
2021/03/23 02:11:15;;;;;;;34.55;27.13;;;;;;;20.79;42.04;100233.59;2056332;28;20034;-69
2021/03/23 02:12:19;;;;;;;34.60;26.40;;;;;;;20.79;42.10;100233.59;2054998;28;20615;-69
2021/03/23 02:13:19;;;;;;;34.40;28.08;;;;;;;20.79;42.04;100234.44;2054879;28;20026;-68
2021/03/23 02:14:25;;;;;;;38.40;28.27;;;;;;;20.77;42.01;100236.47;2055922;28;20023;-68
2021/03/23 02:15:26;;;;;;;33.88;27.10;;;;;;;20.75;42.02;100233.91;2054925;28;20026;-68
2021/03/23 02:16:26;;;;;;;33.40;27.35;;;;;;;20.75;42.20;100235.78;2055815;28;20539;-69
2021/03/23 02:17:33;;;;;;;34.90;28.17;;;;;;;20.74;42.05;100236.78;2055757;28;20617;-68
2021/03/23 02:18:35;;;;;;;31.90;26.27;;;;;;;20.75;42.10;100233.06;2059668;28;20050;-69
2021/03/23 02:19:35;;;;;;;30.85;25.98;;;;;;;20.74;42.24;100240.38;2058245;28;20021;-69
2021/03/23 02:20:37;;;;;;;32.57;27.33;;;;;;;20.74;42.22;100234.06;2056106;28;20034;-69
2021/03/23 02:21:38;;;;;;;32.08;25.67;;;;;;;20.74;42.10;100229.44;2056386;28;20401;-68
2021/03/23 02:22:41;;;;;;;32.03;26.93;;;;;;;20.74;42.03;100232.16;2047497;28;20023;-68
2021/03/23 02:23:43;;;;;;;33.53;26.92;;;;;;;20.75;42.13;100230.31;2053409;28;20784;-68
2021/03/23 02:26:26;;;;;;;33.65;26.23;;;;;;;20.75;42.12;100233.91;2053416;28;19918;-69
2021/03/23 02:27:27;;;;;;;32.97;26.63;;;;;;;20.75;42.08;100235.78;2054620;28;20054;-69
2021/03/23 02:28:28;;;;;;;31.05;26.70;;;;;;;20.77;42.04;100236.47;2053803;28;20299;-68
2021/03/23 02:29:28;;;;;;;32.37;25.53;;;;;;;20.76;42.11;100238.34;2055550;28;20439;-69
2021/03/23 02:30:38;;;;;;;31.77;25.13;;;;;;;20.74;42.17;100239.53;2056160;28;20049;-68
2021/03/23 02:31:49;;;;;;;30.40;26.33;;;;;;;20.75;42.18;100238.53;2056753;28;20040;-68
2021/03/23 02:32:49;;;;;;;30.20;25.23;;;;;;;20.74;42.19;100232.16;2054603;28;20482;-68
2021/03/23 02:33:50;;;;;;;33.83;26.30;;;;;;;20.74;42.08;100232.16;2056025;28;20518;-68
2021/03/23 02:34:50;;;;;;;31.40;25.70;;;;;;;20.75;42.05;100238.53;2056235;28;20027;-69
2021/03/23 02:35:51;;;;;;;32.27;25.97;;;;;;;20.76;42.10;100237.50;2055776;28;20023;-69
2021/03/23 02:36:51;;;;;;;33.37;27.07;;;;;;;20.75;42.14;100238.53;2056491;28;20031;-69
2021/03/23 02:37:52;;;;;;;31.63;26.33;;;;;;;20.75;42.01;100238.53;2055479;28;20039;-69
2021/03/23 02:38:53;;;;;;;32.47;25.83;;;;;;;20.74;42.00;100236.78;2055884;28;20014;-69
2021/03/23 02:39:53;;;;;;;29.60;25.48;;;;;;;20.75;42.17;100244.00;2056440;28;20105;-69
2021/03/23 02:40:54;;;;;;;31.80;26.73;;;;;;;20.76;42.19;100240.25;2050975;28;20038;-68
2021/03/23 02:41:56;;;;;;;32.40;26.27;;;;;;;20.76;42.04;100240.25;2053579;28;20132;-68
2021/03/23 02:42:57;;;;;;;30.33;24.75;;;;;;;20.75;42.14;100239.38;2055822;28;20027;-68
2021/03/23 02:43:57;;;;;;;31.93;26.00;;;;;;;20.75;42.02;100241.28;2056135;28;20026;-69
2021/03/23 02:44:58;;;;;;;32.50;26.27;;;;;;;20.74;42.10;100239.53;2055637;28;20109;-69
2021/03/23 02:45:58;;;;;;;31.40;25.10;;;;;;;20.74;42.07;100236.78;2055944;28;20109;-69
2021/03/23 02:46:58;;;;;;;32.87;25.87;;;;;;;20.74;42.21;100242.28;2056163;28;20478;-68
2021/03/23 02:47:59;;;;;;;32.60;26.17;;;;;;;20.73;42.07;100237.81;2056106;28;20098;-68
2021/03/23 02:49:00;;;;;;;33.33;26.23;;;;;;;20.74;42.23;100242.28;2055904;28;20049;-69
2021/03/23 02:50:01;;;;;;;28.98;24.98;;;;;;;20.74;42.18;100242.28;2056209;28;20081;-68
2021/03/23 02:51:02;;;;;;;31.23;25.63;;;;;;;20.73;42.18;100235.94;2056451;28;20089;-68
2021/03/23 02:52:03;;;;;;;31.63;25.43;;;;;;;20.72;42.08;100234.19;2054011;28;20034;-69
2021/03/23 02:53:04;;;;;;;31.10;26.55;;;;;;;20.73;42.15;100235.94;2056062;28;20035;-69
2021/03/23 02:54:04;;;;;;;30.17;25.33;;;;;;;20.73;42.00;100237.81;2062344;28;20028;-68
2021/03/23 02:55:06;;;;;;;30.67;24.80;;;;;;;20.72;42.15;100234.19;2058308;28;20122;-68
2021/03/23 02:56:06;;;;;;;31.30;25.55;;;;;;;20.73;42.14;100237.81;2056212;28;20289;-68
2021/03/23 02:57:07;;;;;;;31.93;25.70;;;;;;;20.73;42.15;100240.56;2053989;28;20067;-68
2021/03/23 02:58:08;;;;;;;30.00;25.42;;;;;;;20.72;42.16;100241.56;2055964;28;20481;-68
2021/03/23 02:59:08;;;;;;;32.50;26.00;;;;;;;20.71;42.19;100237.13;2051707;28;20030;-69
2021/03/23 03:00:14;;;;;;;28.67;24.27;;;;;;;20.72;42.09;100238.81;2052905;28;20061;-68
2021/03/23 03:01:16;;;;;;;30.70;25.05;;;;;;;20.70;42.10;100235.38;2046847;28;20078;-68
2021/03/23 03:02:17;;;;;;;31.45;26.02;;;;;;;20.69;42.06;100223.56;2054345;28;20038;-68
2021/03/23 03:03:17;;;;;;;29.23;23.53;;;;;;;20.70;41.98;100227.16;2055074;28;20035;-69
2021/03/23 03:04:18;;;;;;;30.27;24.13;;;;;;;20.68;41.99;100221.00;2055968;28;20148;-68
2021/03/23 03:05:18;;;;;;;28.97;25.37;;;;;;;20.69;42.18;100226.31;2055784;28;20122;-68
2021/03/23 03:06:19;;;;;;;29.90;24.10;;;;;;;20.69;42.02;100223.56;2055977;28;20054;-68
2021/03/23 03:07:19;;;;;;;29.17;23.93;;;;;;;20.69;42.14;100228.19;2055003;28;20058;-68
2021/03/23 03:08:21;;;;;;;29.03;24.03;;;;;;;20.67;42.10;100224.75;2055945;28;20110;-68
2021/03/23 03:09:21;;;;;;;27.00;23.45;;;;;;;20.67;42.19;100231.06;2055543;28;20022;-68
2021/03/23 03:10:22;;;;;;;29.70;23.97;;;;;;;20.67;41.99;100235.69;2055651;28;20124;-68
2021/03/23 03:11:22;;;;;;;29.30;23.53;;;;;;;20.66;42.20;100229.38;2056174;28;20425;-68
2021/03/23 03:12:23;;;;;;;31.20;25.37;;;;;;;20.65;42.07;100224.03;2055644;28;20034;-68
2021/03/23 03:13:24;;;;;;;31.63;25.40;;;;;;;20.65;42.24;100216.69;2054333;28;20034;-68
2021/03/23 03:14:25;;;;;;;29.00;24.05;;;;;;;20.66;42.20;100217.56;2054661;28;20042;-68
2021/03/23 03:15:25;;;;;;;29.33;23.53;;;;;;;20.66;42.12;100217.56;2056861;28;20071;-69
2021/03/23 03:16:26;;;;;;;27.00;22.73;;;;;;;20.65;42.15;100218.56;2055457;28;20027;-68
2021/03/23 03:17:26;;;;;;;27.53;23.33;;;;;;;20.64;42.33;100217.69;2055295;28;20172;-69
2021/03/23 03:18:27;;;;;;;28.73;23.90;;;;;;;20.65;42.16;100226.78;2055563;28;20038;-68
2021/03/23 03:19:27;;;;;;;28.67;23.40;;;;;;;20.65;42.16;100224.03;2055244;28;20026;-68
2021/03/23 03:20:28;;;;;;;28.97;23.13;;;;;;;20.64;42.19;100228.66;2056748;28;20022;-68
2021/03/23 03:21:28;;;;;;;30.17;25.33;;;;;;;20.64;42.11;100230.53;2053853;28;20124;-68
2021/03/23 03:22:29;;;;;;;29.63;23.83;;;;;;;20.63;42.17;100220.59;2052063;28;20690;-68
2021/03/23 03:23:30;;;;;;;28.07;22.13;;;;;;;20.62;42.38;100227.94;2055366;28;20038;-68
2021/03/23 03:24:30;;;;;;;31.08;24.13;;;;;;;20.62;42.20;100227.09;2055668;28;20057;-68
2021/03/23 03:25:30;;;;;;;29.37;23.53;;;;;;;20.62;42.33;100227.09;2055576;28;20073;-69
2021/03/23 03:26:31;;;;;;;28.63;23.50;;;;;;;20.61;42.15;100228.13;2055998;28;20093;-69
2021/03/23 03:27:32;;;;;;;29.03;22.67;;;;;;;20.61;42.22;100226.25;2057243;28;20023;-68
2021/03/23 03:28:37;;;;;;;30.87;22.93;;;;;;;20.62;42.52;100221.63;2058813;28;20096;-68
2021/03/23 03:29:37;;;;;;;28.27;23.15;;;;;;;20.58;42.40;100220.19;2053687;28;20030;-68
2021/03/23 03:30:39;;;;;;;27.53;22.03;;;;;;;20.58;42.28;100225.66;2054742;28;20119;-68
2021/03/23 03:31:39;;;;;;;;;;;;;;;20.57;42.47;100224.81;2055752;28;20030;-68
2021/03/23 03:32:40;;;;;;;31.08;24.35;;;;;;;20.57;42.44;100226.69;2054812;28;19910;-68
2021/03/23 03:33:40;;;;;;;28.33;22.97;;;;;;;20.55;42.35;100225.00;2055304;28;20075;-68
2021/03/23 03:34:40;;;;;;;27.33;22.17;;;;;;;20.56;42.48;100225.84;2052046;28;20027;-68
2021/03/23 03:35:42;;;;;;;28.10;23.43;;;;;;;20.55;42.43;100225.00;2050033;28;21105;-68
2021/03/23 03:36:43;;;;;;;;;;;;;;;20.53;42.42;100224.25;2055533;28;20023;-68
2021/03/23 03:37:44;;;;;;;29.48;23.27;;;;;;;20.53;42.59;100227.00;2058785;28;19916;-68
2021/03/23 03:38:45;;;;;;;27.15;22.58;;;;;;;20.53;42.48;100221.50;2057747;28;20033;-69
2021/03/23 03:39:45;;;;;;;28.90;23.70;;;;;;;20.53;42.58;100223.41;2055102;28;20117;-68
2021/03/23 03:40:49;;;;;;;28.07;22.80;;;;;;;20.53;42.58;100223.41;2055577;28;20463;-68
2021/03/23 03:41:49;;;;;;;31.00;23.30;;;;;;;20.51;42.50;100218.06;2054135;28;20096;-68
2021/03/23 03:42:50;;;;;;;26.90;22.27;;;;;;;20.52;42.63;100216.19;2055832;28;20022;-68
2021/03/23 03:43:52;;;;;;;27.75;22.23;;;;;;;20.51;42.64;100215.31;2055828;28;20211;-68
2021/03/23 03:44:52;;;;;;;32.05;22.65;;;;;;;20.51;42.57;100220.81;2054592;28;20463;-68
2021/03/23 03:45:53;;;;;;;28.20;23.57;;;;;;;20.50;42.64;100219.06;2055652;28;20046;-68
2021/03/23 03:46:54;;;;;;;27.60;22.90;;;;;;;20.50;42.72;100219.06;2055865;28;20035;-68
2021/03/23 03:47:56;;;;;;;27.97;21.37;;;;;;;20.50;42.56;100219.06;2054740;28;20077;-68
2021/03/23 03:48:56;;;;;;;27.52;22.23;;;;;;;20.50;42.60;100215.47;2054906;28;20093;-68
2021/03/23 03:49:57;;;;;;;28.17;22.33;;;;;;;20.49;42.62;100222.84;2054901;28;20093;-68
2021/03/23 03:50:58;;;;;;;28.23;22.27;;;;;;;20.48;42.67;100221.13;2056128;28;20031;-68
2021/03/23 03:51:58;;;;;;;27.80;23.17;;;;;;;20.49;42.65;100225.56;2051658;28;20041;-68
2021/03/23 03:52:59;;;;;;;25.80;22.73;;;;;;;20.48;42.69;100221.13;2051789;28;20469;-68
2021/03/23 03:54:00;;;;;;;27.00;21.73;;;;;;;20.47;42.66;100218.53;2054000;28;20027;-68
2021/03/23 03:55:00;;;;;;;29.43;23.43;;;;;;;20.46;42.62;100223.16;2055656;28;20549;-68
2021/03/23 03:56:01;;;;;;;29.27;24.10;;;;;;;20.47;42.71;100224.00;2054869;28;20386;-68
2021/03/23 03:57:01;;;;;;;27.80;22.67;;;;;;;20.46;42.81;100222.31;2055666;28;20098;-67
2021/03/23 03:58:03;;;;;;;25.53;21.90;;;;;;;20.46;42.52;100222.31;2055269;28;20062;-68
2021/03/23 03:59:03;;;;;;;27.02;22.55;;;;;;;20.45;42.78;100221.41;2053527;28;20030;-68
2021/03/23 04:00:05;;;;;;;24.77;20.90;;;;;;;20.45;42.73;100229.63;2055368;28;20058;-68
2021/03/23 04:01:06;;;;;;;26.50;21.88;;;;;;;20.44;42.67;100225.19;2055516;28;20435;-68
2021/03/23 04:02:07;;;;;;;27.30;21.37;;;;;;;20.44;42.80;100227.91;2055309;28;20037;-68
2021/03/23 04:03:13;;;;;;;24.92;20.65;;;;;;;20.44;42.75;100227.06;2055696;28;20026;-68
2021/03/23 04:04:14;;;;;;;26.10;22.25;;;;;;;20.43;42.74;100228.94;2054879;28;20029;-68
2021/03/23 04:05:19;;;;;;;26.33;22.67;;;;;;;20.43;42.79;100228.94;2055939;28;20023;-68
2021/03/23 04:06:20;;;;;;;25.77;22.70;;;;;;;20.43;42.75;100228.06;2055042;28;20150;-68
2021/03/23 04:07:20;;;;;;;24.50;21.77;;;;;;;20.41;42.79;100225.50;2055552;28;20035;-67
2021/03/23 04:08:25;;;;;;;27.87;22.83;;;;;;;20.42;42.79;100224.47;2055389;28;20043;-68
2021/03/23 04:09:26;;;;;;;25.17;21.42;;;;;;;20.41;42.82;100230.97;2056374;28;20105;-68
2021/03/23 04:10:27;;;;;;;27.50;21.73;;;;;;;20.40;42.93;100231.97;2061065;28;20033;-68
2021/03/23 04:11:27;;;;;;;28.17;23.23;;;;;;;20.40;42.77;100240.19;2055745;28;20027;-68
2021/03/23 04:12:27;;;;;;;24.50;21.23;;;;;;;20.40;42.81;100233.84;2054554;28;20031;-68
2021/03/23 04:13:28;;;;;;;26.80;22.50;;;;;;;20.40;42.79;100234.72;2051006;28;20078;-68
2021/03/23 04:14:29;;;;;;;31.57;22.53;;;;;;;20.39;42.79;100238.47;2055608;28;20030;-68
2021/03/23 04:15:37;;;;;;;26.70;22.90;;;;;;;20.39;42.81;100230.25;2057268;28;20036;-68
2021/03/23 04:16:38;;;;;;;27.63;21.45;;;;;;;20.38;42.84;100242.22;2055604;28;20041;-68
2021/03/23 04:17:38;;;;;;;27.10;21.70;;;;;;;20.38;42.82;100242.22;2057218;28;20030;-68
2021/03/23 04:18:38;;;;;;;23.77;20.60;;;;;;;20.38;42.80;100236.72;2057545;28;20451;-68
2021/03/23 04:19:39;;;;;;;26.10;21.27;;;;;;;20.37;42.77;100239.66;2056072;28;20042;-67
2021/03/23 04:20:40;;;;;;;26.40;20.63;;;;;;;20.38;42.81;100236.72;2056781;28;20034;-68
2021/03/23 04:21:41;;;;;;;26.60;20.83;;;;;;;20.37;42.81;100240.50;2049419;28;20027;-68
2021/03/23 04:22:42;;;;;;;29.10;20.27;;;;;;;20.35;42.80;100248.84;2053903;28;20035;-68
2021/03/23 04:23:43;;;;;;;26.60;22.03;;;;;;;20.36;42.82;100244.28;2051669;28;20035;-68
2021/03/23 04:24:43;;;;;;;27.45;22.65;;;;;;;20.36;42.76;100247.00;2056408;28;20022;-68
2021/03/23 04:25:43;;;;;;;23.90;19.77;;;;;;;20.34;42.87;100247.16;2064127;28;20042;-67
2021/03/23 04:26:44;;;;;;;25.50;21.07;;;;;;;20.34;42.82;100247.16;2064587;28;20165;-68
2021/03/23 04:27:45;;;;;;;26.23;20.10;;;;;;;20.33;42.65;100239.97;2058777;28;20022;-68
2021/03/23 04:28:45;;;;;;;25.03;20.57;;;;;;;20.35;42.99;100253.47;2057218;28;20053;-68
2021/03/23 04:29:45;;;;;;;27.33;21.87;;;;;;;20.33;42.92;100241.81;2054488;28;20033;-68
2021/03/23 04:30:48;;;;;;;26.53;22.27;;;;;;;20.34;42.93;100240.81;2056622;28;20078;-68
2021/03/23 04:31:48;;;;;;;24.38;20.17;;;;;;;20.31;43.08;100244.72;2056804;28;20027;-68
2021/03/23 04:33:41;;;;;;;23.17;19.93;;;;;;;20.31;42.90;100246.63;2057774;28;20117;-67
2021/03/23 04:34:42;;;;;;;28.05;20.85;;;;;;;20.29;43.02;100254.13;2057793;28;20026;-68
2021/03/23 04:35:59;;;;;;;25.97;20.23;;;;;;;20.30;42.89;100250.34;2055857;28;20066;-68
2021/03/23 04:36:59;;;;;;;23.95;19.85;;;;;;;20.29;43.11;100245.91;2055200;28;20102;-68
2021/03/23 04:37:59;;;;;;;26.93;20.63;;;;;;;20.28;42.96;100246.91;2056200;28;20077;-68
2021/03/23 04:39:01;;;;;;;25.33;19.93;;;;;;;20.28;43.00;100247.75;2057142;28;20433;-68
2021/03/23 04:40:03;;;;;;;25.00;20.42;;;;;;;20.28;42.93;100249.63;2058321;28;20030;-67
2021/03/23 04:41:10;;;;;;;25.25;21.15;;;;;;;20.28;43.06;100252.38;2055962;28;20493;-68
2021/03/23 04:42:10;;;;;;;26.45;20.17;;;;;;;20.26;43.07;100249.81;2056406;28;20034;-68
2021/03/23 04:43:18;;;;;;;22.37;19.73;;;;;;;20.26;43.17;100259.88;2056193;28;20058;-67
2021/03/23 04:44:19;;;;;;;23.95;20.08;;;;;;;20.25;43.05;100253.53;2056409;28;20042;-67